Airfield :
LOGIN :

Register | Disclaimer

   EN    FR    IT 

 










Legend :    VFR   Marginal VFR   IFR   Intensive IFR   Very Intensive IFR
Visi :
Ceiling :
>= 8 km
>= 3000ft
5 to 8 km
1000 to 3000 ft
1500m to 5 km
500 to 1000 ft
800 to 1500m
200 to 500 ft
< 800m
< 200 ft
Symbols :   Thunderstorms  Fog  Heavy snow  Heavy precipitations  Wind > 20 kt
SIGMETs :     Misc.  Thunderstorms  Icing  Turbulence  Mountain Waves  Volcanic Ashes






- Airport Elevation : 1306 ft
- IATA code : ACH


LSZR - Alten Rhein

CURRENT METAR :
  • 182220Z AUTO VRB02KT 9999 SCT090 SCT100 00/M02 Q1026

EXPIRED METARs :
  • 182150Z AUTO 12003KT 090V170 9999 SCT038 BKN085 00/M01 Q1026
  • 182120Z AUTO VRB02KT 9999 BKN040 M00/M01 Q1026
  • 182050Z AUTO 15003KT 9999 OVC041 01/M01 Q1027
  • 182020Z AUTO VRB02KT 9999 BKN041 01/M02 Q1026
  • 181950Z AUTO VRB02KT 9999 OVC041 01/M02 Q1026

TAF TAF LSZR
Valid from the 18 at 15:00 until the 19 at 00:00 UTC


181425Z 1815/1824 VRB03KT 9999 SCT030 BKN060
BECMG 1815/1818 CAVOK
TEMPO 1818/1824 4500 MIFG
PROB40
TEMPO 1820/1824 2500 BCFG
PROB40
TEMPO 1820/1824 3000 BKN003
ATIS : +41 71 858 51 66



MET'MAP, your aeronautical weather chart ! - Copyright ORBIFLY December 2007 - Disclaimer

ORBIFLY MET'MAP TEAM :

Programming & Development : Alexandra Zaïnal
Concept & original design : Baudouin d'Aumeries
Assistance for programming : Marc-Olivier Méhu
Technical & hardware support : Manuel Goepfert

Contact : metmap@orbifly.com




SOURCES & CREDITS :

   NOAA